Time;durP1;ratioP1;P1;durP2;ratioP2;P2;SDS_P1;SDS_P2;PMS_P1;PMS_P2;Temp;Humidity;BMP_temperature;BMP_pressure;BME280_temperature;BME280_humidity;BME280_pressure;Samples;Min_cycle;Max_cycle;Signal;HPM_P1;HPM_P2
2021/01/01 00:01:54;;;;;;;121.23;51.10;;;1.50;99.90;;;;;;4203278;28;20460;-55
2021/01/01 00:03:56;;;;;;;115.63;47.03;;;1.50;99.90;;;;;;4201913;28;21191;-55
2021/01/01 00:05:57;;;;;;;116.33;47.73;;;1.50;99.90;;;;;;4200777;28;20473;-55
2021/01/01 00:07:58;;;;;;;110.50;48.30;;;1.50;99.90;;;;;;4199605;28;20810;-54
2021/01/01 00:10:07;;;;;;;113.73;47.73;;;1.50;99.90;;;;;;4200430;28;20470;-55
2021/01/01 00:12:10;;;;;;;128.80;53.40;;;1.60;99.90;;;;;;4200223;28;20533;-55
2021/01/01 00:14:13;;;;;;;105.30;46.27;;;1.50;99.90;;;;;;4200831;28;20473;-55
2021/01/01 00:16:14;;;;;;;94.73;41.83;;;1.50;99.90;;;;;;4200476;28;20471;-57
2021/01/01 00:18:16;;;;;;;90.23;39.83;;;1.50;99.90;;;;;;4203534;28;20487;-55
2021/01/01 00:20:17;;;;;;;95.97;39.70;;;1.50;99.90;;;;;;4203013;28;20550;-55
2021/01/01 00:22:18;;;;;;;82.97;35.70;;;1.50;99.90;;;;;;4202070;28;20503;-55
2021/01/01 00:24:20;;;;;;;77.90;33.87;;;1.50;99.90;;;;;;4203238;28;20573;-55
2021/01/01 00:26:22;;;;;;;75.63;32.60;;;1.50;99.90;;;;;;4202864;28;20476;-55
2021/01/01 00:28:23;;;;;;;72.67;31.03;;;1.60;99.90;;;;;;4202744;28;20525;-55
2021/01/01 00:30:25;;;;;;;72.80;31.17;;;1.60;99.90;;;;;;4202059;28;20545;-55
2021/01/01 00:32:26;;;;;;;62.80;28.43;;;1.60;99.90;;;;;;4200462;28;20495;-56
2021/01/01 00:34:27;;;;;;;59.00;27.33;;;1.60;99.90;;;;;;4199427;28;21535;-55
2021/01/01 00:36:29;;;;;;;63.97;27.17;;;1.60;99.90;;;;;;4198964;28;20480;-55
2021/01/01 00:38:30;;;;;;;65.13;26.77;;;1.60;99.90;;;;;;4196708;28;20525;-53
2021/01/01 00:40:31;;;;;;;59.67;26.90;;;1.60;99.90;;;;;;4197428;28;20469;-55
2021/01/01 00:42:36;;;;;;;60.07;27.47;;;1.70;99.90;;;;;;4198792;28;20481;-55
2021/01/01 00:44:37;;;;;;;56.13;25.47;;;1.70;99.90;;;;;;4198065;28;20474;-56
2021/01/01 00:46:38;;;;;;;57.53;25.40;;;1.70;99.90;;;;;;4199092;28;20522;-55
2021/01/01 00:48:40;;;;;;;56.73;25.40;;;1.70;99.90;;;;;;4198164;28;20469;-55
2021/01/01 00:50:41;;;;;;;59.80;25.67;;;1.70;99.90;;;;;;4198892;28;20469;-56
2021/01/01 00:52:42;;;;;;;58.17;26.07;;;1.70;99.90;;;;;;4198276;28;20556;-55
2021/01/01 00:54:44;;;;;;;57.23;25.47;;;1.60;99.90;;;;;;4199452;28;21012;-57
2021/01/01 00:56:45;;;;;;;57.30;25.77;;;1.70;99.90;;;;;;4199900;28;20473;-56
2021/01/01 00:58:49;;;;;;;54.17;24.57;;;1.60;99.90;;;;;;4200502;28;20489;-55
2021/01/01 01:00:51;;;;;;;53.80;24.40;;;1.60;99.90;;;;;;4199375;28;20501;-55
2021/01/01 01:02:52;;;;;;;52.37;23.73;;;1.60;99.90;;;;;;4198668;28;20552;-56
2021/01/01 01:04:53;;;;;;;48.03;22.90;;;1.60;99.90;;;;;;4199212;28;20476;-55
2021/01/01 01:06:55;;;;;;;52.97;23.73;;;1.70;99.90;;;;;;4201032;28;20476;-55
2021/01/01 01:08:56;;;;;;;55.23;23.23;;;1.70;99.90;;;;;;4200360;28;20565;-56
2021/01/01 01:10:58;;;;;;;58.75;28.50;;;1.60;99.90;;;;;;4199907;28;20458;-55
2021/01/01 01:12:59;;;;;;;58.50;26.00;;;1.70;99.90;;;;;;4201601;28;20284;-56
2021/01/01 01:15:01;;;;;;;52.47;23.63;;;1.60;99.90;;;;;;4201659;28;20477;-55
2021/01/01 01:17:03;;;;;;;50.53;23.27;;;1.60;99.90;;;;;;4201275;28;20817;-56
2021/01/01 01:19:04;;;;;;;50.53;22.67;;;1.60;99.90;;;;;;4200246;28;22635;-55
2021/01/01 01:21:07;;;;;;;51.77;22.60;;;1.60;99.90;;;;;;4204106;28;20469;-55
2021/01/01 01:23:08;;;;;;;55.97;24.30;;;1.60;99.90;;;;;;4201798;28;20963;-55
2021/01/01 01:25:10;;;;;;;49.87;21.67;;;1.60;99.90;;;;;;4201931;28;20469;-55
2021/01/01 01:27:11;;;;;;;51.70;22.40;;;1.60;99.90;;;;;;4200282;28;20477;-55
2021/01/01 01:29:13;;;;;;;51.53;23.13;;;1.60;99.90;;;;;;4198947;28;20466;-56
2021/01/01 01:31:15;;;;;;;52.43;24.23;;;1.60;99.90;;;;;;4199790;28;21114;-55
2021/01/01 01:33:16;;;;;;;47.37;21.87;;;1.60;99.90;;;;;;4197338;28;20536;-56
2021/01/01 01:35:18;;;;;;;52.00;22.87;;;1.60;99.90;;;;;;4198358;28;20469;-56
2021/01/01 01:37:19;;;;;;;49.67;22.17;;;1.60;99.90;;;;;;4199222;28;20465;-56
2021/01/01 01:39:20;;;;;;;49.10;22.00;;;1.70;99.90;;;;;;4199544;28;20489;-55
2021/01/01 01:41:22;;;;;;;49.37;22.53;;;1.70;99.90;;;;;;4199203;28;21119;-55
2021/01/01 01:43:25;;;;;;;49.70;21.87;;;1.70;99.90;;;;;;4200405;28;20469;-56
2021/01/01 01:45:26;;;;;;;42.37;19.50;;;1.70;99.90;;;;;;4198453;28;20468;-56
2021/01/01 01:47:29;;;;;;;47.17;21.10;;;1.70;99.90;;;;;;4198884;28;20480;-56
2021/01/01 01:49:31;;;;;;;54.73;23.00;;;1.70;99.90;;;;;;4198904;28;20481;-56
2021/01/01 01:51:33;;;;;;;49.07;20.00;;;1.70;99.90;;;;;;4201149;28;20527;-55
2021/01/01 01:53:39;;;;;;;47.63;21.37;;;1.70;99.90;;;;;;4199859;28;20809;-55
2021/01/01 01:55:41;;;;;;;49.03;21.57;;;1.70;99.90;;;;;;4201600;28;20537;-55
2021/01/01 01:57:43;;;;;;;52.30;21.27;;;1.70;99.90;;;;;;4202947;28;20479;-55
2021/01/01 01:59:47;;;;;;;45.37;21.13;;;1.60;99.90;;;;;;4200728;28;20482;-55
2021/01/01 02:01:49;;;;;;;45.40;20.33;;;1.60;99.90;;;;;;4201389;28;20930;-56
2021/01/01 02:03:52;;;;;;;44.37;20.83;;;1.60;99.90;;;;;;4202139;28;20471;-56
2021/01/01 02:05:53;;;;;;;48.83;21.90;;;1.60;99.90;;;;;;4204048;28;20515;-56
2021/01/01 02:07:55;;;;;;;52.37;22.30;;;1.60;99.90;;;;;;4201682;28;20485;-55
2021/01/01 02:09:56;;;;;;;53.23;21.93;;;1.60;99.90;;;;;;4201579;28;21150;-55
2021/01/01 02:11:57;;;;;;;47.87;21.73;;;1.60;99.90;;;;;;4199699;28;20526;-56
2021/01/01 02:14:01;;;;;;;52.20;21.87;;;1.70;99.90;;;;;;4198848;28;20475;-55
2021/01/01 02:16:04;;;;;;;58.33;24.40;;;1.60;99.90;;;;;;4197743;28;21099;-55
2021/01/01 02:18:05;;;;;;;50.83;23.30;;;1.60;99.90;;;;;;4198318;28;20473;-56
2021/01/01 02:20:10;;;;;;;53.27;23.10;;;1.60;99.90;;;;;;4200908;28;20464;-55
2021/01/01 02:22:12;;;;;;;54.73;23.70;;;1.60;99.90;;;;;;4199826;28;20487;-56
2021/01/01 02:24:13;;;;;;;57.43;23.13;;;1.50;99.90;;;;;;4200885;28;20464;-61
2021/01/01 02:26:15;;;;;;;50.03;21.70;;;1.50;99.90;;;;;;4202367;28;20472;-55
2021/01/01 02:28:16;;;;;;;54.73;22.30;;;1.50;99.90;;;;;;4200616;28;20464;-56
2021/01/01 02:30:18;;;;;;;53.43;22.83;;;1.50;99.90;;;;;;4202610;28;20478;-55
2021/01/01 02:32:20;;;;;;;54.40;22.93;;;1.50;99.90;;;;;;4205798;28;20791;-55
2021/01/01 02:34:21;;;;;;;62.53;24.67;;;1.50;99.90;;;;;;4206216;28;20482;-55
2021/01/01 02:36:22;;;;;;;59.17;24.00;;;1.50;99.90;;;;;;4205281;28;20532;-56
2021/01/01 02:38:25;;;;;;;54.00;22.47;;;1.50;99.90;;;;;;4202053;28;21205;-56
2021/01/01 02:40:26;;;;;;;52.40;21.33;;;1.50;99.90;;;;;;4201378;28;20468;-55
2021/01/01 02:42:27;;;;;;;51.27;22.87;;;1.50;99.90;;;;;;4200080;28;20762;-55
2021/01/01 02:44:29;;;;;;;54.63;22.87;;;1.50;99.90;;;;;;4199682;28;20479;-55
2021/01/01 02:46:31;;;;;;;57.17;23.27;;;1.60;99.90;;;;;;4200262;28;20486;-57
2021/01/01 02:48:33;;;;;;;47.83;21.10;;;1.50;99.90;;;;;;4199921;28;20476;-55
2021/01/01 02:50:34;;;;;;;43.47;19.50;;;1.60;99.90;;;;;;4200019;28;20750;-56
2021/01/01 02:52:35;;;;;;;48.00;21.20;;;1.50;99.90;;;;;;4200540;28;20464;-56
2021/01/01 02:54:37;;;;;;;47.63;21.63;;;1.50;99.90;;;;;;4199553;28;21079;-56
2021/01/01 02:56:39;;;;;;;48.43;20.43;;;1.50;99.90;;;;;;4200574;28;20808;-56
2021/01/01 02:58:40;;;;;;;42.77;19.63;;;1.60;99.90;;;;;;4201511;28;20496;-57
2021/01/01 03:00:46;;;;;;;40.77;18.43;;;1.60;99.90;;;;;;4200970;28;20470;-56
2021/01/01 03:02:48;;;;;;;40.37;17.67;;;1.70;99.90;;;;;;4201659;28;20989;-56
2021/01/01 03:04:49;;;;;;;40.80;17.93;;;1.70;99.90;;;;;;4201819;28;20471;-56
2021/01/01 03:06:50;;;;;;;37.30;16.70;;;1.70;99.90;;;;;;4200869;28;20466;-56
2021/01/01 03:08:52;;;;;;;33.87;15.87;;;1.70;99.90;;;;;;4201583;28;20481;-56
2021/01/01 03:10:54;;;;;;;38.37;17.43;;;1.70;99.90;;;;;;4202711;28;20465;-55
2021/01/01 03:12:56;;;;;;;34.17;15.87;;;1.70;99.90;;;;;;4202879;28;20554;-56
2021/01/01 03:14:57;;;;;;;34.43;15.87;;;1.70;99.90;;;;;;4202408;28;20525;-56
2021/01/01 03:16:59;;;;;;;37.33;16.27;;;1.70;99.90;;;;;;4202031;28;20951;-56
2021/01/01 03:19:00;;;;;;;38.97;16.83;;;1.70;99.90;;;;;;4202584;28;20497;-56
2021/01/01 03:21:01;;;;;;;38.33;17.50;;;1.70;99.90;;;;;;4201652;28;20488;-56
2021/01/01 03:23:03;;;;;;;40.33;17.90;;;1.70;99.90;;;;;;4201729;28;20469;-56
2021/01/01 03:25:05;;;;;;;39.63;17.17;;;1.70;99.90;;;;;;4201864;28;21228;-56
2021/01/01 03:27:07;;;;;;;41.77;18.40;;;1.70;99.90;;;;;;4201618;28;20470;-56
2021/01/01 03:29:09;;;;;;;42.63;18.80;;;1.70;99.90;;;;;;4201658;28;20475;-56
2021/01/01 03:31:10;;;;;;;39.50;17.97;;;1.70;99.90;;;;;;4202589;28;20479;-56
2021/01/01 03:33:11;;;;;;;42.00;18.70;;;1.70;99.90;;;;;;4202087;28;20966;-56
2021/01/01 03:35:13;;;;;;;43.20;19.37;;;1.70;99.90;;;;;;4201646;28;20473;-56
2021/01/01 03:37:14;;;;;;;45.23;19.10;;;1.70;99.90;;;;;;4202150;28;20465;-56
2021/01/01 03:39:15;;;;;;;39.57;18.37;;;1.70;99.90;;;;;;4200484;28;20496;-58
2021/01/01 03:41:17;;;;;;;47.73;19.63;;;1.70;99.90;;;;;;4202747;28;20846;-57
2021/01/01 03:43:19;;;;;;;46.10;20.20;;;1.70;99.90;;;;;;4202254;28;20928;-56
2021/01/01 03:45:20;;;;;;;38.50;18.13;;;1.80;99.90;;;;;;4201583;28;20558;-56
2021/01/01 03:47:22;;;;;;;45.27;18.27;;;1.80;99.90;;;;;;4201944;28;20477;-56
2021/01/01 03:49:23;;;;;;;39.97;17.00;;;1.80;99.90;;;;;;4201730;28;20943;-56
2021/01/01 03:51:24;;;;;;;37.97;16.70;;;1.80;99.90;;;;;;4201010;28;20469;-56
2021/01/01 03:53:26;;;;;;;36.07;16.93;;;1.80;99.90;;;;;;4201195;28;20465;-56
2021/01/01 03:55:27;;;;;;;39.60;17.10;;;1.80;99.90;;;;;;4201585;28;21108;-56
2021/01/01 03:57:28;;;;;;;37.50;16.77;;;1.80;99.90;;;;;;4201866;28;20483;-56
2021/01/01 03:59:30;;;;;;;37.00;17.10;;;1.80;99.90;;;;;;4202122;28;20508;-56
2021/01/01 04:01:32;;;;;;;40.50;17.87;;;1.80;99.90;;;;;;4201734;28;20468;-56
2021/01/01 04:03:34;;;;;;;39.33;16.93;;;1.80;99.90;;;;;;4201626;28;20465;-56
2021/01/01 04:05:35;;;;;;;36.43;17.27;;;1.80;99.90;;;;;;4201193;28;20473;-56
2021/01/01 04:07:37;;;;;;;36.30;17.20;;;1.80;99.90;;;;;;4201513;28;20980;-57
2021/01/01 04:09:38;;;;;;;34.50;15.97;;;1.90;99.90;;;;;;4201338;28;20466;-56
2021/01/01 04:11:40;;;;;;;33.60;15.93;;;1.80;99.90;;;;;;4201938;28;20470;-56
2021/01/01 04:13:41;;;;;;;32.07;15.00;;;1.80;99.90;;;;;;4201463;28;20492;-56
2021/01/01 04:15:44;;;;;;;29.60;13.20;;;1.90;99.90;;;;;;4202048;28;20499;-56
2021/01/01 04:17:45;;;;;;;31.80;14.20;;;1.90;99.90;;;;;;4201369;28;20461;-56
2021/01/01 04:19:47;;;;;;;32.37;15.17;;;1.90;99.90;;;;;;4201627;28;20484;-57
2021/01/01 04:21:48;;;;;;;30.77;13.97;;;1.90;99.90;;;;;;4201087;28;20482;-56
2021/01/01 04:23:50;;;;;;;31.17;14.00;;;1.90;99.90;;;;;;4201594;28;20465;-56
2021/01/01 04:25:51;;;;;;;30.60;13.93;;;1.90;99.90;;;;;;4201688;28;20943;-56
2021/01/01 04:27:52;;;;;;;30.00;14.80;;;1.90;99.90;;;;;;4200259;28;20480;-56
2021/01/01 04:29:53;;;;;;;33.37;15.00;;;1.90;99.90;;;;;;4201764;28;20460;-56
2021/01/01 04:31:56;;;;;;;32.17;15.27;;;1.90;99.90;;;;;;4201187;28;20503;-56
2021/01/01 04:33:57;;;;;;;32.63;15.23;;;1.90;99.90;;;;;;4201283;28;21118;-56
2021/01/01 04:35:58;;;;;;;41.03;17.87;;;1.90;99.90;;;;;;4201999;28;20589;-57
2021/01/01 04:38:00;;;;;;;34.93;16.60;;;1.90;99.90;;;;;;4201132;28;20778;-56
2021/01/01 04:40:01;;;;;;;36.70;16.10;;;1.90;99.90;;;;;;4200982;28;21245;-56
2021/01/01 04:42:03;;;;;;;38.90;17.60;;;1.90;99.90;;;;;;4201449;28;20565;-56
2021/01/01 04:44:06;;;;;;;42.73;18.70;;;1.80;99.90;;;;;;4201330;28;20508;-56
2021/01/01 04:46:08;;;;;;;43.97;18.33;;;1.80;99.90;;;;;;4201351;28;20472;-56
2021/01/01 04:48:10;;;;;;;43.27;17.70;;;1.80;99.90;;;;;;4201489;28;20460;-54
2021/01/01 04:50:14;;;;;;;42.23;18.33;;;1.80;99.90;;;;;;4201216;28;20462;-54
2021/01/01 04:52:18;;;;;;;44.73;18.23;;;1.80;99.90;;;;;;4200150;28;20478;-54
2021/01/01 04:54:22;;;;;;;35.70;16.17;;;1.70;99.90;;;;;;4200372;28;20497;-54
2021/01/01 04:56:24;;;;;;;45.87;18.53;;;1.70;99.90;;;;;;4200709;28;20762;-56
2021/01/01 04:58:26;;;;;;;41.73;16.40;;;1.70;99.90;;;;;;4200218;28;20556;-56
2021/01/01 05:00:28;;;;;;;36.77;16.20;;;1.70;99.90;;;;;;4201236;28;20465;-56
2021/01/01 05:02:29;;;;;;;38.87;16.63;;;1.70;99.90;;;;;;4200419;28;20508;-56
2021/01/01 05:04:31;;;;;;;41.07;17.27;;;1.70;99.90;;;;;;4201432;28;21272;-56
2021/01/01 05:06:35;;;;;;;40.13;17.50;;;1.70;99.90;;;;;;4200599;28;20483;-56
2021/01/01 05:08:36;;;;;;;37.77;16.53;;;1.70;99.90;;;;;;4200269;28;20525;-56
2021/01/01 05:10:37;;;;;;;42.20;18.63;;;1.70;99.90;;;;;;4201455;28;20465;-56
2021/01/01 05:12:39;;;;;;;40.43;17.53;;;1.70;99.90;;;;;;4201150;28;21374;-56
2021/01/01 05:14:41;;;;;;;42.63;18.37;;;1.70;99.90;;;;;;4199832;28;20817;-56
2021/01/01 05:16:52;;;;;;;45.20;19.63;;;1.70;99.90;;;;;;4200036;28;20546;-56
2021/01/01 05:18:54;;;;;;;39.67;18.27;;;1.70;99.90;;;;;;4200264;28;20488;-56
2021/01/01 05:20:58;;;;;;;48.20;19.47;;;1.70;99.90;;;;;;4201037;28;20469;-56
2021/01/01 05:22:59;;;;;;;44.20;18.83;;;1.70;99.90;;;;;;4200747;28;20614;-60
2021/01/01 05:25:03;;;;;;;47.33;19.33;;;1.70;99.90;;;;;;4200757;28;20564;-56
2021/01/01 05:27:11;;;;;;;44.33;19.27;;;1.70;99.90;;;;;;4200117;28;20487;-56
2021/01/01 05:29:20;;;;;;;43.30;18.27;;;1.70;99.90;;;;;;4200667;28;20467;-56
2021/01/01 05:31:23;;;;;;;47.00;19.90;;;1.70;99.90;;;;;;4200428;28;21147;-56
2021/01/01 05:33:25;;;;;;;42.13;18.57;;;1.70;99.90;;;;;;4200859;28;20464;-56
2021/01/01 05:35:28;;;;;;;41.70;18.23;;;1.70;99.90;;;;;;4199673;28;20471;-56
2021/01/01 05:37:33;;;;;;;46.60;18.97;;;1.70;99.90;;;;;;4200443;28;20982;-56
2021/01/01 05:39:35;;;;;;;42.47;19.30;;;1.70;99.90;;;;;;4200555;28;20504;-56
2021/01/01 05:41:38;;;;;;;47.33;20.13;;;1.70;99.90;;;;;;4200582;28;20479;-56
2021/01/01 05:43:39;;;;;;;42.17;18.57;;;1.70;99.90;;;;;;4200142;28;20462;-56
2021/01/01 05:45:41;;;;;;;41.10;17.93;;;1.70;99.90;;;;;;4200969;28;20549;-56
2021/01/01 05:47:42;;;;;;;40.23;18.00;;;1.70;99.90;;;;;;4200295;28;20473;-56
2021/01/01 05:49:43;;;;;;;41.93;18.73;;;1.70;99.90;;;;;;4200087;28;20862;-56
2021/01/01 05:51:45;;;;;;;38.27;17.70;;;1.70;99.90;;;;;;4199276;28;20473;-56
2021/01/01 05:53:47;;;;;;;39.40;18.47;;;1.70;99.90;;;;;;4200508;28;20470;-56
2021/01/01 05:55:48;;;;;;;36.03;17.37;;;1.70;99.90;;;;;;4199622;28;20519;-56
2021/01/01 05:57:50;;;;;;;43.20;19.17;;;1.80;99.90;;;;;;4200041;28;20469;-56
2021/01/01 05:59:52;;;;;;;42.13;17.93;;;1.80;99.90;;;;;;4201042;28;20496;-56
2021/01/01 06:01:56;;;;;;;35.83;16.33;;;1.80;99.90;;;;;;4199755;28;20466;-56
2021/01/01 06:03:57;;;;;;;33.90;15.73;;;1.80;99.90;;;;;;4202888;28;20485;-56
2021/01/01 06:06:04;;;;;;;37.40;15.90;;;1.80;99.90;;;;;;4203294;28;20505;-56
2021/01/01 06:08:10;;;;;;;31.77;15.10;;;1.80;99.90;;;;;;4203638;28;20477;-56
2021/01/01 06:10:13;;;;;;;34.97;15.93;;;1.90;99.90;;;;;;4203210;28;20534;-56
2021/01/01 06:12:25;;;;;;;36.13;16.30;;;1.80;99.90;;;;;;4204172;28;20483;-56
2021/01/01 06:14:38;;;;;;;35.83;15.60;;;1.80;99.90;;;;;;4204579;28;20479;-57
2021/01/01 06:16:45;;;;;;;41.23;16.90;;;1.80;99.90;;;;;;4203851;28;20466;-56
2021/01/01 06:18:47;;;;;;;36.77;17.10;;;1.80;99.90;;;;;;4203023;28;20470;-56
2021/01/01 06:20:57;;;;;;;38.17;17.30;;;1.80;99.90;;;;;;4202894;28;20478;-56
2021/01/01 06:23:03;;;;;;;35.43;16.43;;;1.80;99.90;;;;;;4202827;28;20469;-56
2021/01/01 06:25:05;;;;;;;39.60;16.50;;;1.80;99.90;;;;;;4203174;28;20468;-56
2021/01/01 06:27:07;;;;;;;39.40;16.43;;;1.80;99.90;;;;;;4202191;28;20499;-56
2021/01/01 06:29:08;;;;;;;33.50;15.43;;;1.80;99.90;;;;;;4203870;28;22351;-56
2021/01/01 06:31:12;;;;;;;34.83;15.43;;;1.80;99.90;;;;;;4203557;28;20473;-56
2021/01/01 06:33:13;;;;;;;33.77;15.87;;;1.80;99.90;;;;;;4202323;28;20477;-56
2021/01/01 06:35:16;;;;;;;36.27;15.87;;;1.80;99.90;;;;;;4203523;28;20493;-56
2021/01/01 06:37:37;;;;;;;36.07;15.90;;;1.70;99.90;;;;;;4202576;28;22427;-56
2021/01/01 06:39:43;;;;;;;36.37;14.80;;;1.80;99.90;;;;;;4201786;28;21150;-56
2021/01/01 06:41:45;;;;;;;37.00;16.20;;;1.80;99.90;;;;;;4203176;28;20814;-56
2021/01/01 06:43:53;;;;;;;32.60;14.97;;;1.80;99.90;;;;;;4203105;28;20473;-56
2021/01/01 06:45:58;;;;;;;30.50;13.90;;;1.80;99.90;;;;;;4201776;28;20473;-56
2021/01/01 06:47:59;;;;;;;34.10;14.27;;;1.90;99.90;;;;;;4202218;28;20471;-55
2021/01/01 06:50:01;;;;;;;34.97;15.00;;;1.80;99.90;;;;;;4202548;28;20469;-55
2021/01/01 06:52:13;;;;;;;31.87;14.27;;;1.90;99.90;;;;;;4200378;28;20527;-58
2021/01/01 06:54:15;;;;;;;30.17;14.10;;;1.80;99.90;;;;;;4202994;28;20504;-56
2021/01/01 06:56:19;;;;;;;31.40;14.03;;;1.90;99.90;;;;;;4203578;28;20501;-56
2021/01/01 06:58:25;;;;;;;26.17;13.23;;;1.90;99.90;;;;;;4203711;28;20470;-55
2021/01/01 07:00:53;;;;;;;32.60;13.73;;;1.80;99.90;;;;;;4203431;28;20497;-56
2021/01/01 07:02:54;;;;;;;29.47;14.10;;;1.80;99.90;;;;;;4202237;28;20753;-55
2021/01/01 07:04:57;;;;;;;31.23;14.57;;;1.80;99.90;;;;;;4203506;28;21020;-56
2021/01/01 07:06:58;;;;;;;31.63;13.80;;;1.80;99.90;;;;;;4202647;28;20504;-56
2021/01/01 07:09:00;;;;;;;34.90;14.07;;;1.80;99.90;;;;;;4202334;28;20474;-56
2021/01/01 07:11:01;;;;;;;33.50;14.77;;;1.80;99.90;;;;;;4202387;28;20575;-56
2021/01/01 07:13:15;;;;;;;32.10;14.13;;;1.80;99.90;;;;;;4203002;28;20797;-56
2021/01/01 07:15:33;;;;;;;29.27;13.87;;;1.80;99.90;;;;;;4201585;28;20485;-56
2021/01/01 07:17:47;;;;;;;28.90;12.53;;;1.80;99.90;;;;;;4201964;28;20474;-56
2021/01/01 07:19:49;;;;;;;27.73;12.97;;;1.80;99.90;;;;;;4202540;28;20492;-56
2021/01/01 07:21:51;;;;;;;30.07;13.70;;;1.80;99.90;;;;;;4202819;28;20488;-56
2021/01/01 07:23:52;;;;;;;25.90;12.57;;;1.80;99.90;;;;;;4202323;28;20474;-56
2021/01/01 07:25:54;;;;;;;24.40;11.37;;;1.70;99.90;;;;;;4202049;28;21067;-56
2021/01/01 07:27:56;;;;;;;24.40;11.53;;;1.70;99.90;;;;;;4202347;28;20484;-58
2021/01/01 07:30:09;;;;;;;23.80;10.97;;;1.70;99.90;;;;;;4202206;28;20523;-56
2021/01/01 07:32:11;;;;;;;24.70;11.03;;;1.70;99.90;;;;;;4201863;28;20468;-56
2021/01/01 07:34:13;;;;;;;22.67;11.07;;;1.70;99.90;;;;;;4202477;28;20505;-56
2021/01/01 07:36:16;;;;;;;25.80;11.00;;;1.70;99.90;;;;;;4204193;28;20466;-56
2021/01/01 07:38:23;;;;;;;22.17;10.90;;;1.70;99.90;;;;;;4208869;28;20927;-56
2021/01/01 07:40:25;;;;;;;27.37;11.70;;;1.70;99.90;;;;;;4205904;28;20477;-56
2021/01/01 07:42:26;;;;;;;25.03;11.73;;;1.70;99.90;;;;;;4201344;28;20470;-56
2021/01/01 07:44:27;;;;;;;27.57;11.33;;;1.80;99.90;;;;;;4200957;28;20469;-56
2021/01/01 07:46:33;;;;;;;25.67;11.27;;;1.70;99.90;;;;;;4201385;28;20470;-56
2021/01/01 07:48:35;;;;;;;24.83;11.23;;;1.80;99.90;;;;;;4202359;28;21252;-56
2021/01/01 07:50:39;;;;;;;22.67;11.07;;;1.80;99.90;;;;;;4201763;28;20465;-56
2021/01/01 07:52:40;;;;;;;25.90;10.90;;;1.80;99.90;;;;;;4202089;28;20474;-56
2021/01/01 07:54:48;;;;;;;27.47;11.80;;;1.80;99.90;;;;;;4202057;28;20486;-56
2021/01/01 07:56:50;;;;;;;25.73;11.27;;;1.80;99.90;;;;;;4201085;28;20521;-56
2021/01/01 07:58:53;;;;;;;25.97;12.07;;;1.80;99.90;;;;;;4203390;28;20503;-56
2021/01/01 08:01:00;;;;;;;25.50;11.47;;;1.80;99.90;;;;;;4202366;28;20476;-58
2021/01/01 08:03:02;;;;;;;31.17;12.80;;;1.80;99.90;;;;;;4200472;28;20503;-56
2021/01/01 08:05:05;;;;;;;23.73;11.37;;;1.90;99.90;;;;;;4201107;28;20501;-56
2021/01/01 08:07:07;;;;;;;27.93;11.67;;;1.80;99.90;;;;;;4201528;28;20477;-56
2021/01/01 08:09:08;;;;;;;27.23;12.83;;;1.80;99.90;;;;;;4200733;28;20478;-56
2021/01/01 08:11:10;;;;;;;28.57;12.00;;;1.80;99.90;;;;;;4201641;28;20494;-56
2021/01/01 08:13:14;;;;;;;27.07;12.90;;;1.80;99.90;;;;;;4200952;28;20473;-56
2021/01/01 08:15:26;;;;;;;31.07;12.50;;;1.80;99.90;;;;;;4202268;28;20480;-56
2021/01/01 08:17:29;;;;;;;28.43;13.27;;;1.80;99.90;;;;;;4201328;28;20485;-55
2021/01/01 08:19:30;;;;;;;25.53;12.33;;;1.80;99.90;;;;;;4201336;28;20494;-56
2021/01/01 08:21:38;;;;;;;26.43;12.10;;;1.80;99.90;;;;;;4202039;28;20969;-57
2021/01/01 08:23:46;;;;;;;25.27;11.90;;;1.90;99.90;;;;;;4201726;28;20666;-56
2021/01/01 08:25:48;;;;;;;24.87;10.87;;;1.90;99.90;;;;;;4201570;28;20458;-56
2021/01/01 08:27:50;;;;;;;23.20;11.00;;;1.90;99.90;;;;;;4200195;28;20474;-56
2021/01/01 08:29:54;;;;;;;24.77;11.50;;;1.90;99.90;;;;;;4200600;28;20569;-56
2021/01/01 08:31:57;;;;;;;21.93;10.77;;;2.00;99.90;;;;;;4200695;28;20487;-56
2021/01/01 08:33:59;;;;;;;22.63;11.20;;;2.00;99.90;;;;;;4201742;28;20474;-56
2021/01/01 08:36:01;;;;;;;22.90;11.00;;;2.00;99.90;;;;;;4201538;28;20613;-56
2021/01/01 08:38:16;;;;;;;24.00;11.83;;;2.10;99.90;;;;;;4200093;28;20553;-56
2021/01/01 08:40:21;;;;;;;22.87;10.63;;;2.10;99.90;;;;;;4201849;28;20491;-56
2021/01/01 08:42:23;;;;;;;27.00;12.20;;;2.10;99.90;;;;;;4201472;28;21318;-56
2021/01/01 08:44:25;;;;;;;27.63;12.47;;;2.10;99.90;;;;;;4200635;28;20468;-56
2021/01/01 08:46:27;;;;;;;26.13;11.53;;;2.10;99.90;;;;;;4201106;28;20466;-56
2021/01/01 08:48:29;;;;;;;24.63;11.70;;;2.10;99.90;;;;;;4200641;28;20568;-56
2021/01/01 08:50:30;;;;;;;22.77;11.00;;;2.10;99.90;;;;;;4201284;28;20986;-56
2021/01/01 08:52:32;;;;;;;26.87;12.63;;;2.10;99.90;;;;;;4200968;28;20486;-57
2021/01/01 08:54:34;;;;;;;27.33;12.23;;;2.10;99.90;;;;;;4201301;28;20621;-56
2021/01/01 08:56:37;;;;;;;27.27;12.27;;;2.20;99.90;;;;;;4200837;28;20553;-56
2021/01/01 08:58:38;;;;;;;25.93;11.90;;;2.20;99.90;;;;;;4200657;28;20527;-56
2021/01/01 09:00:42;;;;;;;24.23;11.13;;;2.20;99.90;;;;;;4199892;28;20565;-56
2021/01/01 09:02:46;;;;;;;26.17;12.77;;;2.20;99.90;;;;;;4200483;28;20478;-56
2021/01/01 09:04:48;;;;;;;28.73;12.33;;;2.20;99.90;;;;;;4200412;28;20470;-56
2021/01/01 09:07:14;;;;;;;25.30;12.10;;;2.30;99.90;;;;;;4201232;28;20508;-56
2021/01/01 09:09:15;;;;;;;25.87;11.43;;;2.30;99.90;;;;;;4200540;28;20462;-58
2021/01/01 09:11:23;;;;;;;25.10;11.47;;;2.30;99.90;;;;;;4199429;28;20489;-56
2021/01/01 09:13:29;;;;;;;24.80;11.83;;;2.30;99.90;;;;;;4201542;28;20468;-56
2021/01/01 09:15:31;;;;;;;22.67;10.90;;;2.30;99.90;;;;;;4200961;28;20816;-56
2021/01/01 09:17:32;;;;;;;21.63;10.87;;;2.30;99.90;;;;;;4201155;28;20465;-56
2021/01/01 09:19:33;;;;;;;19.30;10.33;;;2.30;99.90;;;;;;4200709;28;20520;-56
2021/01/01 09:21:35;;;;;;;23.40;11.43;;;2.30;99.90;;;;;;4200578;28;20759;-56
2021/01/01 09:23:37;;;;;;;21.67;10.40;;;2.40;99.90;;;;;;4200349;28;20469;-56
2021/01/01 09:25:40;;;;;;;23.93;10.63;;;2.40;99.90;;;;;;4201363;28;20476;-56
2021/01/01 09:27:41;;;;;;;22.47;10.20;;;2.40;99.90;;;;;;4200566;28;20568;-56
2021/01/01 09:29:43;;;;;;;21.57;10.23;;;2.50;99.90;;;;;;4200922;28;20467;-56
2021/01/01 09:31:45;;;;;;;21.20;10.20;;;2.50;99.90;;;;;;4201225;28;21114;-56
2021/01/01 09:34:00;;;;;;;22.87;10.57;;;2.50;99.90;;;;;;4199910;28;20786;-57
2021/01/01 09:36:01;;;;;;;18.13;8.93;;;2.60;99.90;;;;;;4200268;28;20485;-56
2021/01/01 09:38:04;;;;;;;22.33;10.67;;;2.60;99.90;;;;;;4200703;28;20540;-56
2021/01/01 09:40:06;;;;;;;19.53;9.60;;;2.70;99.90;;;;;;4203735;28;20493;-56
2021/01/01 09:42:08;;;;;;;19.97;9.50;;;2.70;99.90;;;;;;4203908;28;20477;-56
2021/01/01 09:44:09;;;;;;;19.70;9.93;;;2.70;99.90;;;;;;4203781;28;20481;-56
2021/01/01 09:46:11;;;;;;;22.20;9.87;;;2.80;99.90;;;;;;4203311;28;20566;-56
2021/01/01 09:48:13;;;;;;;20.73;10.60;;;2.80;99.90;;;;;;4203838;28;20941;-56
2021/01/01 09:50:15;;;;;;;19.23;9.80;;;2.80;99.90;;;;;;4203541;28;20466;-56
2021/01/01 09:52:16;;;;;;;19.83;9.63;;;2.80;99.90;;;;;;4203635;28;20474;-57
2021/01/01 09:54:17;;;;;;;18.97;9.57;;;2.80;99.90;;;;;;4204069;28;20477;-57
2021/01/01 09:56:19;;;;;;;19.73;9.60;;;2.90;99.90;;;;;;4204234;28;20494;-57
2021/01/01 09:58:20;;;;;;;20.73;9.60;;;2.90;99.90;;;;;;4203501;28;20566;-57
2021/01/01 10:00:21;;;;;;;19.27;8.77;;;2.90;99.90;;;;;;4203652;28;20486;-57
2021/01/01 10:02:24;;;;;;;21.17;9.97;;;2.90;99.90;;;;;;4205452;28;20482;-56
2021/01/01 10:04:25;;;;;;;18.40;9.37;;;2.90;99.90;;;;;;4203946;28;21036;-58
2021/01/01 10:06:27;;;;;;;17.57;9.23;;;2.90;99.90;;;;;;4203050;28;20477;-57
2021/01/01 10:08:28;;;;;;;18.97;9.47;;;2.90;99.90;;;;;;4203166;28;20475;-56
2021/01/01 10:10:32;;;;;;;17.17;8.63;;;2.90;99.90;;;;;;4203129;28;20470;-56
2021/01/01 10:12:34;;;;;;;20.00;10.17;;;2.90;99.90;;;;;;4203607;28;20482;-57
2021/01/01 10:14:35;;;;;;;19.30;10.17;;;2.90;99.90;;;;;;4204803;28;21388;-56
2021/01/01 10:16:39;;;;;;;21.23;9.90;;;2.90;99.90;;;;;;4202761;28;20562;-57
2021/01/01 10:18:41;;;;;;;21.57;9.90;;;3.00;99.90;;;;;;4203256;28;20623;-57
2021/01/01 10:20:43;;;;;;;19.43;9.57;;;3.00;99.90;;;;;;4203597;28;20504;-56
2021/01/01 10:22:44;;;;;;;18.37;9.10;;;3.00;99.90;;;;;;4203427;28;20485;-56
2021/01/01 10:24:46;;;;;;;18.93;9.03;;;3.10;99.90;;;;;;4202702;28;20485;-56
2021/01/01 10:26:49;;;;;;;22.50;10.00;;;3.10;99.90;;;;;;4203218;28;20480;-56
2021/01/01 10:28:50;;;;;;;17.67;9.03;;;3.10;99.90;;;;;;4203198;28;20464;-56
2021/01/01 10:30:51;;;;;;;19.13;8.90;;;3.20;99.90;;;;;;4202979;28;21390;-56
2021/01/01 10:32:55;;;;;;;20.00;9.63;;;3.20;99.90;;;;;;4203918;28;20476;-56